Berger, MO (63014)

06:06 PM CDT die 27o May, anno 2017 (GMT -0500)
St. George | | Change Station
Active Advisory: Tornado Watch Active Notice: Public Information Statement

Elev 572 ft 38.70 °N, 91.44 °W | Updated 3 seconds ago

Aequaliter Nubila
Aequaliter Nubila
65.8 °F
Feels Like 65.8 °F
N
19.7
Ventus Variabilis Ventus from Inter Aquilonem et Eurum
Gusts 22.8 mph

Hodie
High -- | Low -- °F
--% Chance of Precip.
Yesterday
High -- | Low -- °F
Precip. -- in
Pressio 29.95 in
Visibilitas 3.0 milia passuum
Clouds Plerumque Nubila 4500 ft
Plerumque Nubila 6500 ft
Aequaliter Nubila 8000 ft
Frigus in quo Ros apparet 54 °F
Umor 65%
Rainfall 0.26 in
Snow Depth Not available.
5:44 AM 8:20 PM
Waxing Crescent, 7% visible
SPECI KSUS 272220Z 19013KT 3SM TSRA BR BKN045 BKN065 OVC080 19/18 A2995 RMK AO2 PK WND 25029/2201 WSHFT 2206 LTG DSNT ALQDS P0018 T01890183
Pressio 29.95 in
Visibilitas 3.0 milia passuum
Clouds Plerumque Nubila 4500 ft
Plerumque Nubila 6500 ft
Aequaliter Nubila 8000 ft
Frigus in quo Ros apparet 54 °F
Umor 65%
Rainfall 0.26 in
Snow Depth Not available.
5:44 AM 8:20 PM
Waxing Crescent, 7% visible
SPECI KSUS 272220Z 19013KT 3SM TSRA BR BKN045 BKN065 OVC080 19/18 A2995 RMK AO2 PK WND 25029/2201 WSHFT 2206 LTG DSNT ALQDS P0018 T01890183

Get Your Daily Forecast Email!

Thanks for signing up!

Be on the lookout for a verification email in your inbox.

You'll start receiving severe weather alerts in your inbox..

×

10-Day Weather Forecast

Almanac

Astronomy

May. 27, 2017 Rise Set
Actual Time
Civil Twilight
Nautical Twilight
Astronomical Twilight
Moon
Length Of Visible Light
Length of Day
Tomorrow will be .
, % of the Moon is Illuminated

Today's Extremes

State Highs State Lows

Community

WunderPhotos

Category 6

Welcome to Category 6. This is the collective home for Weather Underground's featured writeups by Dr. Jeff Masters (right), Bob Henson (left), Chris Burt, and other regular contributors.

Nearby

Air Quality

  Air Quality AQ Index Pollutant
Not available.

Snow Depth

Station Depth Elevation

Earthquake Activity

City Distance Mag. Time & Date
Minimum magnitude displayed is 2.5.

Coastal Water Temperatures

Locus Calor

Stations

Nearby Weather Stations

Station Location Temp Frigus Venti Frigus in quo Ros apparet Umor Ventus Precip. Elev Renovata Type
                   

Watches & Warnings

Tornado Watch
Issued: 5:43 PM CDT May. 27, 2017 – National Weather Service

Tornado Watch 275 remains in effect until 700 PM CDT for the
following locations

MO
. Missouri counties included are

Barry Barton Benton
Bollinger Butler Camden
Carter Cedar Christian
Crawford Dade Dallas
Dent Douglas Franklin
Gasconade Greene Hickory
Howell Iron Jasper
Jefferson Laclede Lawrence
McDonald Madison Maries
Miller Morgan Newton
Oregon Ozark Perry
Phelps Polk Pulaski
Reynolds Ripley St. Clair
Ste. Genevieve St. Francois Shannon
stone Taney Texas
Vernon Washington Wayne
Webster Wright